Time;durP1;ratioP1;P1;durP2;ratioP2;P2;SDS_P1;SDS_P2;PMS_P1;PMS_P2;Temp;Humidity;BMP_temperature;BMP_pressure;BME280_temperature;BME280_humidity;BME280_pressure;Samples;Min_cycle;Max_cycle;Signal;HPM_P1;HPM_P2
2021/05/21 00:01:34;;;;;;;4.47;3.20;;;14.50;99.90;;;;;;5041342;28;20440;-46
2021/05/21 00:04:00;;;;;;;3.40;2.43;;;14.50;99.90;;;;;;5040549;28;20522;-48
2021/05/21 00:06:28;;;;;;;2.60;2.40;;;14.50;99.90;;;;;;5041297;28;20477;-48
2021/05/21 00:08:54;;;;;;;3.47;2.80;;;14.40;99.90;;;;;;5041226;28;20441;-49
2021/05/21 00:11:21;;;;;;;3.90;3.20;;;14.30;99.90;;;;;;5041292;28;20480;-49
2021/05/21 00:13:47;;;;;;;2.57;2.33;;;14.30;99.90;;;;;;5042020;28;20463;-51
2021/05/21 00:16:13;;;;;;;3.40;2.30;;;14.20;99.90;;;;;;5042354;28;20519;-50
2021/05/21 00:18:39;;;;;;;5.90;3.20;;;14.20;99.90;;;;;;5041933;28;20444;-48
2021/05/21 00:21:05;;;;;;;3.90;3.03;;;14.20;99.90;;;;;;5042811;28;20463;-46
2021/05/21 00:23:32;;;;;;;3.10;2.80;;;14.20;99.90;;;;;;5042587;28;20432;-48
2021/05/21 00:25:59;;;;;;;3.90;3.43;;;14.20;99.90;;;;;;5043017;28;20460;-48
2021/05/21 00:28:25;;;;;;;3.20;2.90;;;14.20;99.90;;;;;;5044233;28;20469;-52
2021/05/21 00:30:51;;;;;;;3.23;2.93;;;14.20;99.90;;;;;;5043900;28;21019;-50
2021/05/21 00:33:17;;;;;;;4.37;2.60;;;14.20;99.90;;;;;;5043017;28;20451;-48
2021/05/21 00:35:43;;;;;;;6.10;3.20;;;14.20;99.90;;;;;;5051936;28;20440;-53
2021/05/21 00:38:09;;;;;;;3.40;2.80;;;14.10;99.90;;;;;;5054571;28;20445;-53
2021/05/21 00:40:36;;;;;;;5.40;2.83;;;14.10;99.90;;;;;;5055082;28;20435;-54
2021/05/21 00:43:03;;;;;;;4.63;3.40;;;14.10;99.90;;;;;;5035175;28;20429;-49
2021/05/21 00:45:29;;;;;;;3.53;2.80;;;14.10;99.90;;;;;;5020926;28;20967;-51
2021/05/21 00:47:55;;;;;;;4.23;3.03;;;14.10;99.90;;;;;;5021166;28;20445;-48
2021/05/21 00:50:21;;;;;;;3.60;3.00;;;14.00;99.90;;;;;;5024135;28;20521;-47
2021/05/21 00:52:47;;;;;;;3.57;2.80;;;14.00;99.90;;;;;;5025581;28;20512;-46
2021/05/21 00:55:14;;;;;;;4.10;3.20;;;14.00;99.90;;;;;;5028088;28;20451;-48
2021/05/21 01:02:52;;;;;;;3.43;3.13;;;14.00;99.90;;;;;;5005116;28;20472;-47
2021/05/21 01:23:27;;;;;;;3.00;2.57;;;14.00;99.90;;;;;;5974748;22;20468;-47
2021/05/21 02:35:48;;;;;;;2.90;2.60;;;13.70;99.90;;;;;;5177338;22;20502;-53
2021/05/21 02:38:14;;;;;;;3.93;2.10;;;13.70;99.90;;;;;;5022386;28;20441;-49
2021/05/21 02:40:40;;;;;;;3.97;2.63;;;13.70;99.90;;;;;;5016023;28;20820;-46
2021/05/21 02:43:06;;;;;;;3.27;2.87;;;13.70;99.90;;;;;;5015857;28;20510;-50
2021/05/21 02:45:33;;;;;;;2.97;2.27;;;13.60;99.90;;;;;;5015923;28;20929;-47
2021/05/21 02:48:00;;;;;;;4.60;2.93;;;13.60;99.90;;;;;;5015681;28;20464;-51
2021/05/21 02:50:26;;;;;;;2.53;2.30;;;13.60;99.90;;;;;;5015740;28;20484;-47
2021/05/21 02:52:53;;;;;;;2.60;2.30;;;13.60;99.90;;;;;;5015083;28;20913;-48
2021/05/21 02:55:19;;;;;;;3.03;2.53;;;13.60;99.90;;;;;;5015965;28;20460;-48
2021/05/21 02:57:45;;;;;;;3.60;2.60;;;13.60;99.90;;;;;;5014310;28;20456;-52
2021/05/21 03:00:12;;;;;;;3.30;2.70;;;13.60;99.90;;;;;;5012912;28;20446;-51
2021/05/21 03:20:47;;;;;;;3.83;3.43;;;13.50;99.90;;;;;;5153208;22;20464;-54
2021/05/21 03:23:13;;;;;;;3.57;3.00;;;13.50;99.90;;;;;;5052229;28;20452;-52
2021/05/21 03:25:41;;;;;;;4.93;2.83;;;13.40;99.90;;;;;;5045411;28;20463;-51
2021/05/21 03:28:07;;;;;;;3.50;2.63;;;13.50;99.90;;;;;;5045187;28;20444;-48
2021/05/21 03:30:34;;;;;;;3.20;2.63;;;13.50;99.90;;;;;;5045244;28;20497;-53
2021/05/21 03:33:01;;;;;;;3.17;2.67;;;13.60;99.90;;;;;;5045295;28;20452;-53
2021/05/21 03:35:27;;;;;;;3.70;2.93;;;13.60;99.90;;;;;;5033606;28;20441;-50
2021/05/21 03:37:54;;;;;;;3.30;2.83;;;13.70;99.90;;;;;;5031861;28;20448;-51
2021/05/21 03:40:21;;;;;;;2.67;2.47;;;13.60;99.90;;;;;;5032128;28;20509;-48
2021/05/21 03:42:49;;;;;;;3.63;2.90;;;13.70;99.90;;;;;;5032254;28;20517;-47
2021/05/21 03:45:16;;;;;;;4.70;3.00;;;13.70;99.90;;;;;;5031927;28;20448;-48
2021/05/21 03:47:42;;;;;;;4.30;2.97;;;13.60;99.90;;;;;;5032188;28;20523;-50
2021/05/21 03:50:10;;;;;;;4.03;3.20;;;13.60;99.90;;;;;;5031735;28;20541;-50
2021/05/21 03:52:36;;;;;;;2.90;2.43;;;13.60;99.90;;;;;;5031977;28;20451;-47
2021/05/21 03:55:04;;;;;;;4.40;2.60;;;13.60;99.90;;;;;;5032008;28;20606;-53
2021/05/21 03:57:30;;;;;;;2.60;2.40;;;13.60;99.90;;;;;;5031933;28;20505;-48
2021/05/21 03:59:57;;;;;;;4.50;2.87;;;13.50;99.90;;;;;;5032134;28;20525;-53
2021/05/21 04:02:24;;;;;;;3.90;2.73;;;13.50;99.90;;;;;;5031463;28;20468;-50
2021/05/21 04:04:51;;;;;;;3.40;2.50;;;13.50;99.90;;;;;;5031578;28;20452;-50
2021/05/21 04:07:17;;;;;;;2.57;2.37;;;13.40;99.90;;;;;;5030941;28;20456;-45
2021/05/21 04:09:44;;;;;;;3.00;2.37;;;13.40;99.90;;;;;;5031600;28;20782;-49
2021/05/21 04:12:11;;;;;;;3.40;3.10;;;13.40;99.90;;;;;;5031509;28;20970;-49
2021/05/21 04:14:37;;;;;;;4.30;3.30;;;13.30;99.90;;;;;;5031774;28;20480;-51
2021/05/21 05:41:29;;;;;;;3.73;3.10;;;14.20;99.90;;;;;;5014468;28;20494;-45
2021/05/21 05:43:55;;;;;;;3.47;3.10;;;14.30;99.90;;;;;;5014807;28;20433;-47
2021/05/21 05:46:21;;;;;;;3.93;2.60;;;14.30;99.90;;;;;;4994232;28;20461;-49
2021/05/21 05:48:48;;;;;;;5.77;2.90;;;14.40;99.90;;;;;;4994792;28;20477;-46
2021/05/21 05:51:14;;;;;;;5.70;2.80;;;14.40;99.90;;;;;;4994340;28;20481;-53
2021/05/21 05:53:41;;;;;;;3.50;2.90;;;14.40;99.90;;;;;;4994702;28;20910;-52
2021/05/21 05:56:07;;;;;;;5.70;2.77;;;14.50;99.90;;;;;;4994688;28;20532;-48
2021/05/21 05:58:34;;;;;;;3.90;2.30;;;14.50;99.90;;;;;;4994266;28;20462;-48
2021/05/21 06:01:00;;;;;;;3.30;2.57;;;14.70;99.90;;;;;;4994444;28;20449;-49
2021/05/21 06:03:28;;;;;;;6.17;3.20;;;14.80;99.90;;;;;;4994292;28;20790;-49
2021/05/21 06:05:54;;;;;;;3.40;2.83;;;14.80;99.90;;;;;;4994500;28;20450;-46
2021/05/21 06:08:20;;;;;;;2.60;2.40;;;14.90;99.90;;;;;;4994565;28;20458;-49
2021/05/21 06:10:47;;;;;;;6.70;2.97;;;14.90;99.90;;;;;;4994314;28;20496;-47
2021/05/21 06:13:13;;;;;;;2.70;2.43;;;15.00;99.90;;;;;;4998208;28;20446;-50
2021/05/21 06:15:40;;;;;;;2.40;2.20;;;15.20;99.90;;;;;;5014211;28;20442;-46
2021/05/21 06:18:07;;;;;;;3.20;2.73;;;15.30;99.90;;;;;;5002970;28;20441;-51
2021/05/21 06:20:35;;;;;;;3.27;2.27;;;15.50;99.90;;;;;;4994455;28;20462;-52
2021/05/21 06:35:58;;;;;;;3.80;2.67;;;16.30;99.90;;;;;;5128211;22;20484;-50
2021/05/21 06:38:24;;;;;;;2.90;2.47;;;16.40;99.90;;;;;;5037217;28;20436;-48
2021/05/21 06:40:50;;;;;;;2.30;2.07;;;16.50;99.90;;;;;;5035828;28;20444;-50
2021/05/21 06:43:19;;;;;;;5.10;2.60;;;16.50;99.90;;;;;;5036344;28;20459;-49
2021/05/21 06:45:45;;;;;;;5.10;2.97;;;16.60;99.90;;;;;;5035256;28;20464;-47
2021/05/21 06:48:11;;;;;;;2.87;2.27;;;16.70;99.90;;;;;;5036070;28;20451;-51
2021/05/21 06:50:38;;;;;;;6.17;3.60;;;16.70;99.90;;;;;;5035545;28;20956;-48
2021/05/21 06:53:05;;;;;;;5.37;2.23;;;16.80;99.90;;;;;;5033660;28;20567;-47
2021/05/21 06:55:31;;;;;;;4.63;2.13;;;16.90;99.90;;;;;;5033566;28;20451;-51
2021/05/21 06:57:58;;;;;;;2.90;2.17;;;16.90;99.90;;;;;;5032851;28;20444;-52
2021/05/21 07:00:24;;;;;;;4.37;2.60;;;17.10;99.90;;;;;;5026251;28;20436;-47
2021/05/21 07:02:50;;;;;;;4.90;2.73;;;17.20;99.90;;;;;;5014042;28;20437;-53
2021/05/21 07:05:17;;;;;;;2.40;2.20;;;17.30;99.90;;;;;;5026802;28;20897;-50
2021/05/21 07:07:44;;;;;;;3.03;2.27;;;17.50;99.90;;;;;;5027663;28;20904;-53
2021/05/21 07:10:12;;;;;;;3.63;2.07;;;17.50;99.90;;;;;;5024779;28;20484;-51
2021/05/21 07:12:38;;;;;;;10.17;2.30;;;17.50;99.90;;;;;;5023138;28;20446;-48
2021/05/21 07:15:06;;;;;;;2.93;2.17;;;18.30;99.90;;;;;;5024927;28;20444;-47
2021/05/21 07:17:33;;;;;;;3.70;1.77;;;19.20;99.90;;;;;;5022491;28;20492;-47
2021/05/21 07:19:59;;;;;;;3.73;2.23;;;19.80;99.90;;;;;;5021339;28;20815;-52
2021/05/21 07:22:25;;;;;;;4.23;1.90;;;20.10;99.70;;;;;;5021470;28;20539;-54
2021/05/21 07:24:52;;;;;;;6.80;2.00;;;20.00;98.70;;;;;;5022632;28;20935;-52
2021/05/21 07:27:19;;;;;;;3.90;2.07;;;20.10;98.80;;;;;;5024338;28;20436;-49
2021/05/21 07:29:45;;;;;;;7.90;1.33;;;20.20;97.10;;;;;;5019338;28;20457;-47
2021/05/21 07:32:11;;;;;;;3.10;2.00;;;20.40;95.90;;;;;;5031453;28;20533;-49
2021/05/21 07:34:37;;;;;;;1.67;1.33;;;21.10;94.70;;;;;;5018649;28;20546;-53
2021/05/21 07:37:04;;;;;;;2.73;1.67;;;21.60;92.80;;;;;;5028516;28;20444;-51
2021/05/21 07:39:30;;;;;;;4.53;1.80;;;21.80;90.10;;;;;;5026248;28;20452;-53
2021/05/21 07:41:58;;;;;;;8.73;2.57;;;21.80;87.80;;;;;;5017934;28;20475;-51
2021/05/21 07:44:26;;;;;;;2.03;1.63;;;22.30;84.90;;;;;;5021085;28;20551;-50
2021/05/21 07:46:52;;;;;;;3.13;1.73;;;22.00;83.30;;;;;;5027834;28;20543;-55
2021/05/21 07:49:23;;;;;;;2.80;2.00;;;21.90;83.30;;;;;;5024098;28;20534;-53
2021/05/21 07:51:50;;;;;;;2.70;2.30;;;21.40;83.00;;;;;;5021274;28;20877;-53
2021/05/21 07:54:17;;;;;;;3.27;2.00;;;21.00;84.70;;;;;;5015081;28;20456;-54
2021/05/21 07:56:43;;;;;;;2.40;2.20;;;21.80;82.90;;;;;;5013615;28;20526;-51
2021/05/21 07:59:11;;;;;;;9.30;2.13;;;22.40;79.20;;;;;;5016375;28;20486;-50
2021/05/21 08:01:38;;;;;;;2.50;2.30;;;22.80;76.70;;;;;;5015694;28;20563;-52
2021/05/21 08:04:04;;;;;;;5.30;1.80;;;23.10;74.40;;;;;;5010489;28;20987;-53
2021/05/21 08:06:30;;;;;;;3.70;1.73;;;23.10;73.30;;;;;;5011828;28;20452;-51
2021/05/21 08:08:57;;;;;;;4.70;2.00;;;23.70;72.30;;;;;;5017927;28;20449;-52
2021/05/21 08:11:24;;;;;;;2.07;1.87;;;24.70;68.90;;;;;;5017382;28;20523;-51
2021/05/21 08:13:50;;;;;;;2.73;2.00;;;25.60;64.80;;;;;;5016582;28;20456;-52
2021/05/21 08:16:16;;;;;;;3.33;2.60;;;26.40;60.50;;;;;;5012929;28;20448;-52
2021/05/21 08:18:43;;;;;;;5.60;2.17;;;27.00;58.50;;;;;;5017430;28;20520;-55
2021/05/21 08:21:10;;;;;;;2.70;1.97;;;28.00;55.50;;;;;;5018856;28;20452;-52
2021/05/21 08:23:37;;;;;;;6.37;1.97;;;28.70;52.70;;;;;;5012632;28;20449;-50
2021/05/21 08:26:07;;;;;;;2.87;1.60;;;29.20;50.60;;;;;;5016483;28;20448;-49
2021/05/21 08:28:33;;;;;;;3.57;1.80;;;28.90;50.70;;;;;;5016658;28;20445;-50
2021/05/21 08:31:00;;;;;;;1.70;1.60;;;29.30;48.50;;;;;;5016359;28;20485;-57
2021/05/21 08:33:26;;;;;;;2.10;1.87;;;29.10;47.80;;;;;;5013677;28;20445;-46
2021/05/21 08:35:53;;;;;;;3.20;1.60;;;29.00;47.50;;;;;;5011926;28;21178;-50
2021/05/21 08:38:19;;;;;;;2.00;1.53;;;29.00;48.00;;;;;;5016722;28;21032;-49
2021/05/21 08:40:47;;;;;;;5.20;1.80;;;29.50;46.70;;;;;;5014566;28;20452;-53
2021/05/21 08:43:14;;;;;;;6.30;2.10;;;29.80;46.10;;;;;;5013247;28;20511;-50
2021/05/21 08:45:41;;;;;;;2.47;1.70;;;30.00;45.50;;;;;;5014315;28;20535;-47
2021/05/21 08:48:13;;;;;;;3.03;1.70;;;30.40;44.70;;;;;;5015104;28;20797;-50
2021/05/21 08:50:41;;;;;;;4.83;1.80;;;30.50;43.90;;;;;;5017014;28;20491;-50
2021/05/21 08:53:09;;;;;;;4.47;2.30;;;30.30;44.60;;;;;;5014572;28;20467;-55
2021/05/21 08:55:35;;;;;;;6.30;1.77;;;30.30;44.80;;;;;;5014004;28;20460;-56
2021/05/21 08:58:01;;;;;;;6.30;2.13;;;30.20;43.40;;;;;;5014677;28;20471;-56
2021/05/21 09:00:27;;;;;;;7.13;2.13;;;29.70;44.00;;;;;;5015081;28;20762;-54
2021/05/21 09:02:56;;;;;;;3.40;2.00;;;29.80;43.50;;;;;;5021055;28;20517;-54
2021/05/21 09:05:23;;;;;;;3.63;1.60;;;28.60;44.10;;;;;;5013249;28;20437;-54
2021/05/21 09:07:49;;;;;;;2.50;1.63;;;27.50;46.20;;;;;;5016170;28;20464;-55
2021/05/21 09:10:17;;;;;;;4.13;1.40;;;26.90;46.80;;;;;;5015822;28;21408;-53
2021/05/21 09:12:46;;;;;;;6.43;1.60;;;26.60;48.40;;;;;;5016663;28;20597;-53
2021/05/21 09:15:15;;;;;;;6.17;2.13;;;27.10;47.30;;;;;;5016323;28;20464;-50
2021/05/21 09:17:52;;;;;;;2.10;1.40;;;27.30;47.00;;;;;;5014051;28;20457;-50
2021/05/21 09:20:30;;;;;;;3.50;1.40;;;26.60;48.30;;;;;;5019995;28;20523;-50
2021/05/21 09:23:01;;;;;;;4.13;2.30;;;25.90;49.30;;;;;;5022246;28;20843;-53
2021/05/21 09:25:43;;;;;;;2.20;1.77;;;24.90;51.20;;;;;;5019846;28;20509;-53
2021/05/21 09:28:31;;;;;;;3.40;1.60;;;24.60;52.80;;;;;;5018496;28;20501;-49
2021/05/21 09:31:08;;;;;;;3.00;2.03;;;25.50;51.50;;;;;;5015312;28;20567;-56
2021/05/21 09:33:36;;;;;;;3.87;1.93;;;25.40;51.10;;;;;;5016996;28;20457;-51
2021/05/21 09:36:03;;;;;;;8.80;1.97;;;24.40;51.50;;;;;;5020188;28;20880;-50
2021/05/21 09:38:32;;;;;;;3.20;2.03;;;23.50;51.00;;;;;;5009960;28;20484;-51
2021/05/21 09:41:07;;;;;;;1.90;1.60;;;22.70;52.40;;;;;;5016418;28;20462;-47
2021/05/21 09:43:35;;;;;;;3.57;1.60;;;22.00;53.50;;;;;;5019416;28;20595;-47
2021/05/21 09:46:08;;;;;;;1.83;1.13;;;21.60;54.40;;;;;;5011049;28;20453;-49
2021/05/21 09:48:35;;;;;;;4.73;1.70;;;21.60;54.70;;;;;;5020661;28;20457;-53
2021/05/21 09:51:02;;;;;;;4.27;1.53;;;22.70;54.00;;;;;;5021700;28;20488;-49
2021/05/21 09:53:28;;;;;;;5.83;1.30;;;23.00;53.50;;;;;;5019413;28;20451;-52
2021/05/21 09:55:55;;;;;;;4.07;1.67;;;22.70;53.20;;;;;;5018411;28;20445;-47
2021/05/21 09:58:28;;;;;;;5.90;1.40;;;21.90;53.40;;;;;;5020590;28;20445;-54
2021/05/21 10:01:11;;;;;;;4.30;1.30;;;21.40;54.00;;;;;;5028171;28;20448;-50
2021/05/21 10:03:38;;;;;;;2.13;1.40;;;21.10;54.70;;;;;;5022132;28;20476;-49
2021/05/21 10:06:05;;;;;;;5.73;1.50;;;21.00;55.00;;;;;;5023615;28;20460;-52
2021/05/21 10:08:31;;;;;;;3.00;1.40;;;21.60;55.60;;;;;;5017307;28;20468;-52
2021/05/21 10:10:58;;;;;;;2.63;1.37;;;22.90;53.20;;;;;;5012679;28;20533;-53
2021/05/21 10:13:27;;;;;;;1.70;1.20;;;23.80;51.20;;;;;;5017081;28;20448;-53
2021/05/21 10:15:53;;;;;;;5.60;2.53;;;24.20;50.60;;;;;;5016933;28;20445;-49
2021/05/21 10:18:20;;;;;;;4.43;1.30;;;24.70;50.50;;;;;;5021249;28;20459;-52
2021/05/21 10:20:47;;;;;;;6.50;1.60;;;25.30;49.10;;;;;;5027250;28;20943;-52
2021/05/21 10:23:17;;;;;;;2.17;1.20;;;25.60;48.40;;;;;;5026209;28;20460;-55
2021/05/21 10:25:45;;;;;;;2.10;1.50;;;25.90;46.80;;;;;;5026171;28;20493;-59
2021/05/21 10:28:12;;;;;;;2.90;1.20;;;25.80;46.00;;;;;;5016782;28;20445;-58
2021/05/21 10:30:39;;;;;;;1.80;1.47;;;25.90;46.50;;;;;;5021297;28;20559;-50
2021/05/21 10:33:31;;;;;;;2.43;1.30;;;25.60;46.70;;;;;;5021099;28;20456;-52
2021/05/21 10:36:25;;;;;;;6.87;1.97;;;24.70;48.30;;;;;;5011440;28;20538;-49
2021/05/21 10:39:01;;;;;;;2.00;1.50;;;24.00;49.20;;;;;;5016422;28;20459;-45
2021/05/21 10:41:27;;;;;;;3.60;1.30;;;23.10;50.30;;;;;;5019691;28;20457;-51
2021/05/21 10:43:55;;;;;;;2.80;1.10;;;22.70;51.20;;;;;;5018423;28;20897;-48
2021/05/21 10:46:22;;;;;;;3.83;1.73;;;22.60;52.00;;;;;;5018049;28;20445;-49
2021/05/21 10:48:53;;;;;;;3.47;2.83;;;22.80;52.80;;;;;;5018359;28;20787;-50
2021/05/21 10:51:21;;;;;;;14.73;1.70;;;23.00;52.80;;;;;;5017339;28;20544;-51
2021/05/21 10:53:47;;;;;;;2.23;1.73;;;23.20;51.50;;;;;;5013113;28;20457;-46
2021/05/21 10:56:14;;;;;;;3.33;1.70;;;23.40;51.00;;;;;;5028420;28;20448;-47
2021/05/21 10:58:44;;;;;;;3.00;1.37;;;23.60;51.20;;;;;;5017927;28;20526;-52
2021/05/21 11:01:23;;;;;;;2.13;1.50;;;23.70;48.60;;;;;;5024586;28;20777;-48
2021/05/21 11:04:15;;;;;;;3.00;1.40;;;23.30;49.00;;;;;;5026086;28;20483;-48
2021/05/21 11:06:45;;;;;;;4.30;1.30;;;23.10;49.60;;;;;;5005054;28;20445;-53
2021/05/21 11:09:12;;;;;;;2.23;1.23;;;22.80;50.20;;;;;;5020775;28;20494;-50
2021/05/21 11:11:43;;;;;;;6.07;1.30;;;23.10;50.00;;;;;;5026408;28;21160;-53
2021/05/21 11:14:19;;;;;;;4.13;1.20;;;22.80;49.50;;;;;;5022370;28;20468;-51
2021/05/21 11:16:51;;;;;;;1.20;1.03;;;22.70;49.70;;;;;;5015641;28;20561;-51
2021/05/21 11:19:22;;;;;;;3.67;1.20;;;22.30;50.50;;;;;;5025205;28;20517;-52
2021/05/21 11:21:51;;;;;;;1.67;1.37;;;22.10;51.20;;;;;;5018605;28;20770;-53
2021/05/21 11:24:34;;;;;;;2.30;1.43;;;22.20;51.10;;;;;;5021530;28;20468;-56
2021/05/21 11:27:00;;;;;;;1.67;1.20;;;22.30;51.20;;;;;;5023899;28;20452;-53
2021/05/21 11:29:27;;;;;;;2.13;1.27;;;22.60;51.90;;;;;;5017968;28;20474;-51
2021/05/21 11:31:54;;;;;;;2.13;1.00;;;23.00;51.70;;;;;;5016213;28;20483;-50
2021/05/21 11:34:20;;;;;;;2.40;1.50;;;23.20;52.00;;;;;;5017751;28;20801;-49
2021/05/21 11:36:46;;;;;;;2.60;1.17;;;23.30;51.40;;;;;;5018027;28;20444;-50
2021/05/21 11:39:12;;;;;;;4.43;1.20;;;23.50;50.20;;;;;;5020769;28;20844;-52
2021/05/21 11:41:43;;;;;;;1.97;1.10;;;23.40;50.50;;;;;;5020199;28;20478;-52
2021/05/21 11:44:10;;;;;;;4.23;1.57;;;23.00;50.10;;;;;;5019944;28;20449;-49
2021/05/21 11:46:37;;;;;;;3.60;1.37;;;22.70;50.60;;;;;;5021685;28;20467;-51
2021/05/21 11:49:08;;;;;;;3.87;2.03;;;22.60;51.40;;;;;;5025827;28;20449;-51
2021/05/21 11:51:34;;;;;;;4.23;2.73;;;22.70;51.80;;;;;;5017958;28;20505;-52
2021/05/21 11:54:02;;;;;;;8.60;2.13;;;22.80;52.80;;;;;;5020880;28;20452;-52
2021/05/21 11:56:31;;;;;;;1.30;1.00;;;23.00;52.60;;;;;;5016267;28;20453;-49
2021/05/21 11:58:58;;;;;;;1.50;1.10;;;22.90;51.40;;;;;;5016653;28;20456;-53
2021/05/21 12:01:25;;;;;;;3.90;1.10;;;22.70;52.00;;;;;;5030087;28;20950;-52
2021/05/21 12:03:51;;;;;;;1.73;1.30;;;22.60;52.90;;;;;;5030451;28;20470;-53
2021/05/21 12:06:18;;;;;;;3.10;1.57;;;22.40;53.10;;;;;;5017661;28;20449;-53
2021/05/21 12:08:47;;;;;;;5.07;1.37;;;22.50;53.50;;;;;;5025381;28;20835;-56
2021/05/21 12:11:13;;;;;;;2.43;1.50;;;22.60;52.90;;;;;;5024901;28;20505;-55
2021/05/21 12:13:40;;;;;;;2.03;1.40;;;22.70;52.20;;;;;;5020189;28;20926;-56
2021/05/21 12:16:11;;;;;;;1.33;1.23;;;22.60;51.80;;;;;;5013993;28;20456;-50
2021/05/21 12:18:38;;;;;;;1.30;1.20;;;22.60;51.50;;;;;;5020681;28;20451;-52
2021/05/21 12:21:04;;;;;;;3.67;1.47;;;22.60;50.60;;;;;;5011974;28;20523;-53
2021/05/21 12:23:35;;;;;;;2.13;1.10;;;22.50;51.40;;;;;;5026002;28;20824;-50
2021/05/21 12:26:02;;;;;;;3.00;1.40;;;22.40;51.00;;;;;;5014844;28;20449;-50
2021/05/21 12:28:29;;;;;;;2.73;1.73;;;22.20;52.00;;;;;;5018375;28;20450;-48
2021/05/21 12:30:57;;;;;;;2.60;1.67;;;22.00;52.90;;;;;;5018927;28;20477;-52
2021/05/21 12:33:24;;;;;;;2.30;1.07;;;21.80;53.10;;;;;;5020312;28;20452;-54
2021/05/21 12:35:50;;;;;;;3.43;1.30;;;21.60;53.90;;;;;;5023205;28;20472;-54
2021/05/21 12:38:19;;;;;;;2.57;1.47;;;21.40;54.20;;;;;;5022912;28;20433;-55
2021/05/21 12:40:51;;;;;;;3.50;1.50;;;21.20;54.90;;;;;;5034206;28;20523;-55
2021/05/21 12:43:18;;;;;;;6.47;1.90;;;21.10;55.00;;;;;;5017985;28;20532;-52
2021/05/21 12:46:02;;;;;;;3.50;1.37;;;20.90;55.50;;;;;;5019350;28;20479;-53
2021/05/21 12:48:39;;;;;;;4.57;2.20;;;20.80;55.40;;;;;;5022950;28;20540;-54
2021/05/21 12:51:21;;;;;;;2.63;1.77;;;20.60;55.40;;;;;;5016585;28;20589;-53
2021/05/21 12:53:49;;;;;;;1.53;0.97;;;20.60;56.00;;;;;;5024541;28;20519;-50
2021/05/21 12:56:34;;;;;;;4.10;1.23;;;20.50;56.90;;;;;;5018432;28;20445;-50
2021/05/21 12:59:04;;;;;;;6.00;1.50;;;20.60;57.00;;;;;;5020085;28;20441;-50
2021/05/21 13:01:31;;;;;;;3.30;1.60;;;20.60;56.90;;;;;;5021034;28;20456;-51
2021/05/21 13:03:58;;;;;;;1.50;1.30;;;20.70;57.60;;;;;;5019716;28;20460;-55
2021/05/21 13:06:26;;;;;;;2.77;1.30;;;20.70;57.10;;;;;;5022903;28;20448;-54
2021/05/21 13:08:52;;;;;;;2.87;1.47;;;20.90;55.70;;;;;;5020312;28;20445;-55
2021/05/21 13:11:18;;;;;;;3.03;1.40;;;21.30;56.60;;;;;;5016930;28;20484;-54
2021/05/21 13:13:46;;;;;;;3.97;1.60;;;21.60;55.50;;;;;;5019277;28;20449;-56
2021/05/21 13:16:12;;;;;;;1.70;1.23;;;21.90;55.10;;;;;;5014062;28;20496;-54
2021/05/21 13:18:40;;;;;;;3.90;1.90;;;22.00;55.00;;;;;;5019128;28;20456;-55
2021/05/21 13:21:07;;;;;;;1.97;1.57;;;22.00;54.70;;;;;;5022306;28;20482;-54
2021/05/21 13:23:34;;;;;;;1.70;1.43;;;21.90;54.70;;;;;;5020998;28;20573;-54
2021/05/21 13:26:05;;;;;;;3.50;1.70;;;21.80;55.20;;;;;;5021607;28;20440;-50
2021/05/21 13:28:50;;;;;;;3.47;1.20;;;21.80;55.20;;;;;;5010966;28;20529;-51
2021/05/21 13:31:16;;;;;;;5.63;1.30;;;21.80;55.00;;;;;;5023491;28;20524;-53
2021/05/21 13:33:42;;;;;;;1.90;1.30;;;21.80;55.10;;;;;;5014584;28;20789;-50
2021/05/21 13:36:08;;;;;;;1.50;1.40;;;21.80;53.80;;;;;;5021203;28;21097;-53
2021/05/21 13:38:34;;;;;;;2.13;1.37;;;21.50;53.40;;;;;;5014378;28;20449;-52
2021/05/21 13:41:01;;;;;;;6.63;1.60;;;21.30;54.00;;;;;;5029067;28;20440;-49
2021/05/21 13:43:27;;;;;;;5.07;1.93;;;21.20;55.30;;;;;;5023233;28;20448;-51
2021/05/21 13:45:54;;;;;;;8.50;1.60;;;21.10;56.70;;;;;;5017635;28;20520;-53
2021/05/21 13:48:20;;;;;;;2.60;1.40;;;20.80;60.50;;;;;;5020479;28;20482;-52
2021/05/21 13:50:47;;;;;;;3.67;1.23;;;20.60;60.90;;;;;;5021308;28;20515;-51
2021/05/21 13:53:13;;;;;;;3.13;1.53;;;20.60;60.10;;;;;;5032396;28;20464;-52
2021/05/21 13:55:41;;;;;;;8.70;1.50;;;20.50;60.10;;;;;;5024738;28;20850;-49
2021/05/21 13:58:07;;;;;;;2.63;1.60;;;20.50;61.90;;;;;;5021933;28;20445;-47
2021/05/21 14:00:33;;;;;;;4.10;1.53;;;20.50;59.40;;;;;;5016057;28;20517;-51
2021/05/21 14:03:00;;;;;;;3.93;1.27;;;20.50;57.70;;;;;;5015802;28;20460;-54
2021/05/21 14:05:26;;;;;;;2.30;1.23;;;20.40;56.80;;;;;;5034226;28;20483;-50
2021/05/21 14:07:53;;;;;;;6.80;1.23;;;20.20;56.30;;;;;;5027009;28;20456;-51
2021/05/21 14:10:19;;;;;;;4.70;2.20;;;20.10;57.20;;;;;;5026751;28;20471;-51
2021/05/21 14:12:46;;;;;;;2.93;2.63;;;19.80;59.70;;;;;;5024062;28;20976;-56
2021/05/21 14:15:13;;;;;;;1.80;1.43;;;19.40;64.70;;;;;;5022612;28;20449;-48
2021/05/21 14:17:39;;;;;;;2.47;1.20;;;19.20;67.80;;;;;;5028273;28;20809;-48
2021/05/21 14:20:09;;;;;;;1.80;1.30;;;19.20;69.80;;;;;;5023088;28;20490;-52
2021/05/21 14:22:39;;;;;;;3.33;1.43;;;19.50;69.30;;;;;;5032508;28;20461;-48
2021/05/21 14:25:07;;;;;;;3.10;1.90;;;19.80;69.60;;;;;;5023838;28;20507;-49
2021/05/21 14:27:34;;;;;;;3.00;2.70;;;20.10;68.50;;;;;;5027776;28;20469;-53
2021/05/21 14:30:03;;;;;;;3.43;2.63;;;20.20;66.90;;;;;;5029319;28;20820;-47
2021/05/21 14:32:30;;;;;;;1.80;1.53;;;20.10;67.80;;;;;;5014385;28;20993;-50
2021/05/21 14:34:58;;;;;;;2.83;1.27;;;20.10;65.10;;;;;;5027028;28;20817;-51
2021/05/21 14:37:25;;;;;;;3.83;1.67;;;19.90;64.10;;;;;;5022816;28;20449;-51
2021/05/21 14:39:52;;;;;;;3.77;1.80;;;19.90;63.60;;;;;;5022015;28;20449;-50
2021/05/21 14:42:18;;;;;;;1.30;1.20;;;19.90;63.40;;;;;;5017740;28;20441;-52
2021/05/21 14:44:45;;;;;;;4.13;1.47;;;19.80;63.70;;;;;;5021463;28;20452;-51
2021/05/21 14:47:13;;;;;;;2.13;1.60;;;19.90;61.60;;;;;;5020661;28;20782;-52
2021/05/21 14:49:39;;;;;;;6.43;1.50;;;19.90;59.50;;;;;;5022421;28;20461;-51
2021/05/21 14:52:06;;;;;;;2.70;1.67;;;19.90;59.40;;;;;;5017709;28;20557;-54
2021/05/21 14:54:33;;;;;;;2.93;1.70;;;19.90;59.30;;;;;;5018421;28;20444;-52
2021/05/21 14:57:00;;;;;;;2.23;1.43;;;19.80;59.70;;;;;;5020935;28;20465;-54
2021/05/21 14:59:26;;;;;;;3.00;1.57;;;19.70;59.90;;;;;;5023458;28;20470;-53
2021/05/21 15:01:52;;;;;;;3.07;2.30;;;19.60;60.30;;;;;;5022233;28;20963;-48
2021/05/21 15:04:22;;;;;;;2.53;1.63;;;19.60;61.30;;;;;;5022693;28;20526;-51
2021/05/21 15:06:48;;;;;;;3.87;1.50;;;19.60;62.10;;;;;;5020523;28;20512;-50
2021/05/21 15:09:15;;;;;;;8.07;1.23;;;19.60;63.60;;;;;;5023409;28;20882;-53
2021/05/21 15:11:47;;;;;;;2.53;2.10;;;19.50;62.80;;;;;;5031201;28;20888;-55
2021/05/21 15:14:15;;;;;;;6.33;3.43;;;19.60;62.70;;;;;;5022945;28;20567;-52
2021/05/21 15:16:49;;;;;;;5.00;1.80;;;19.60;61.50;;;;;;5020824;28;20810;-48
2021/05/21 15:24:49;;;;;;;3.60;2.40;;;19.80;60.80;;;;;;5007624;28;20894;-47
2021/05/21 15:27:16;;;;;;;2.87;1.73;;;20.00;60.30;;;;;;5016231;28;20446;-47
2021/05/21 15:29:42;;;;;;;3.50;1.20;;;20.10;60.00;;;;;;5021598;28;20440;-51
2021/05/21 15:32:09;;;;;;;5.27;1.30;;;20.10;60.50;;;;;;5023570;28;20839;-48
2021/05/21 15:34:37;;;;;;;23.13;4.10;;;20.00;59.70;;;;;;5026831;28;20480;-49
2021/05/21 15:37:03;;;;;;;4.83;1.77;;;19.80;60.00;;;;;;5024205;28;20453;-49
2021/05/21 15:39:29;;;;;;;8.50;5.97;;;19.90;59.10;;;;;;5017466;28;20461;-48
2021/05/21 15:42:08;;;;;;;10.20;5.90;;;19.90;59.80;;;;;;5022510;28;20496;-49
2021/05/21 15:47:20;;;;;;;6.20;2.20;;;20.00;60.00;;;;;;5023440;28;20805;-50
2021/05/21 15:49:49;;;;;;;2.43;1.43;;;20.10;59.60;;;;;;5024559;28;20475;-51
2021/05/21 15:52:19;;;;;;;3.00;1.37;;;20.10;58.20;;;;;;5027192;28;20857;-53
2021/05/21 15:54:49;;;;;;;2.83;1.33;;;20.10;58.00;;;;;;5030733;28;20454;-53
2021/05/21 15:57:35;;;;;;;5.60;1.40;;;20.20;58.00;;;;;;5029950;28;20452;-49
2021/05/21 16:00:03;;;;;;;2.90;1.50;;;20.20;57.30;;;;;;5031577;28;20770;-50
2021/05/21 16:02:29;;;;;;;2.90;1.50;;;20.40;57.90;;;;;;5030877;28;20491;-51
2021/05/21 16:04:56;;;;;;;4.60;1.70;;;20.50;57.60;;;;;;5030798;28;20448;-52
2021/05/21 16:07:22;;;;;;;4.10;1.90;;;20.50;57.80;;;;;;5031207;28;20444;-52
2021/05/21 16:09:53;;;;;;;2.63;1.47;;;20.50;57.50;;;;;;5031287;28;20476;-48
2021/05/21 16:12:19;;;;;;;3.10;1.30;;;20.40;56.50;;;;;;5031434;28;20521;-48
2021/05/21 16:14:47;;;;;;;1.40;1.23;;;20.30;56.60;;;;;;5032210;28;20478;-50
2021/05/21 16:17:14;;;;;;;1.60;1.27;;;20.20;57.00;;;;;;5032485;28;20825;-52
2021/05/21 16:19:42;;;;;;;3.87;1.60;;;20.30;55.80;;;;;;5032149;28;20822;-53
2021/05/21 16:22:09;;;;;;;2.30;1.57;;;20.30;56.00;;;;;;5030240;28;20432;-54
2021/05/21 16:24:35;;;;;;;1.90;1.13;;;20.20;55.60;;;;;;5016999;28;20469;-54
2021/05/21 16:27:01;;;;;;;5.47;3.00;;;20.10;54.90;;;;;;5011651;28;20530;-53